Time;durP1;ratioP1;P1;durP2;ratioP2;P2;SDS_P1;SDS_P2;PMS_P1;PMS_P2;Temp;Humidity;BMP_temperature;BMP_pressure;BME280_temperature;BME280_humidity;BME280_pressure;Samples;Min_cycle;Max_cycle;Signal;HPM_P1;HPM_P2
2022/02/09 00:04:42;;;;;;;2.67;2.47;;;;;;;7.85;100.00;101486.16;5072756;28;20592;-73
2022/02/09 00:07:16;;;;;;;3.90;3.60;;;;;;;7.92;100.00;101487.50;5072696;28;20726;-73
2022/02/09 00:09:44;;;;;;;3.17;2.97;;;;;;;7.94;100.00;101471.72;5072712;28;20159;-73
2022/02/09 00:12:23;;;;;;;3.53;3.27;;;;;;;7.96;100.00;101485.91;5072903;28;20300;-73
2022/02/09 00:14:59;;;;;;;3.87;3.57;;;;;;;7.98;100.00;101483.75;5072349;28;20197;-73
2022/02/09 00:33:08;;;;;;;1.90;1.80;;;;;;;7.94;100.00;101469.00;5072549;28;20232;-73
2022/02/09 00:36:31;;;;;;;6.67;4.83;;;;;;;7.94;100.00;101465.47;5071953;28;20209;-73
2022/02/09 01:57:14;;;;;;;1.87;1.57;;;;;;;8.23;100.00;101522.97;5071160;28;20508;-72
2022/02/09 01:59:42;;;;;;;3.60;3.30;;;;;;;8.23;100.00;101507.44;5071108;28;20185;-72
2022/02/09 02:02:08;;;;;;;2.80;2.60;;;;;;;8.23;99.47;101509.34;5070812;28;20173;-73
2022/02/09 02:04:33;;;;;;;1.90;0.80;;;;;;;8.25;99.33;101502.59;5070741;28;20526;-72
2022/02/09 02:07:01;;;;;;;0.97;0.60;;;;;;;8.29;98.01;101505.56;5070593;28;20170;-73
2022/02/09 02:09:28;;;;;;;2.87;2.50;;;;;;;8.32;96.99;101491.41;5070197;28;20174;-72
2022/02/09 02:11:59;;;;;;;0.77;0.67;;;;;;;8.31;97.07;101489.78;5070076;28;20182;-73
2022/02/09 02:14:32;;;;;;;1.20;1.10;;;;;;;8.39;95.64;101493.88;5070208;28;20202;-73
2022/02/09 02:17:06;;;;;;;1.43;1.40;;;;;;;8.39;95.05;101494.75;5070224;28;20178;-73
2022/02/09 02:19:37;;;;;;;0.53;0.53;;;;;;;8.36;95.38;101492.53;5070243;28;20178;-73
2022/02/09 03:13:01;;;;;;;1.80;1.70;;;;;;;8.19;93.71;101427.41;5073480;28;20178;-72
2022/02/09 03:15:34;;;;;;;2.83;2.63;;;;;;;8.17;94.20;101426.88;5073021;28;20206;-72
2022/02/09 03:26:31;;;;;;;2.13;2.03;;;;;;;8.19;94.64;101430.16;5072594;28;20248;-73
2022/02/09 03:46:14;;;;;;;1.00;1.00;;;;;;;8.10;96.31;101429.06;5069819;28;20558;-73
2022/02/09 03:53:59;;;;;;;1.10;1.00;;;;;;;8.14;94.46;101411.09;5071973;28;20190;-73
2022/02/09 03:56:28;;;;;;;2.00;1.33;;;;;;;8.14;95.01;101426.63;5070852;28;20178;-72
2022/02/09 03:58:54;;;;;;;2.00;1.90;;;;;;;8.15;94.56;101401.03;5072453;28;20244;-73
2022/02/09 04:01:22;;;;;;;0.77;0.77;;;;;;;8.14;94.75;101421.97;5072735;28;20174;-72
2022/02/09 04:03:47;;;;;;;1.77;1.67;;;;;;;8.16;94.16;101417.09;5072203;28;20692;-73
2022/02/09 04:06:13;;;;;;;2.00;1.90;;;;;;;8.18;94.19;101423.06;5072094;28;20202;-73
2022/02/09 04:08:47;;;;;;;4.07;3.70;;;;;;;8.14;94.40;101413.81;5072102;28;20166;-72
2022/02/09 04:11:20;;;;;;;0.70;0.70;;;;;;;8.12;94.00;101413.28;5072154;28;20622;-73
2022/02/09 04:38:16;;;;;;;3.90;3.60;;;;;;;8.04;94.03;101397.47;5072310;28;20182;-73
2022/02/09 04:48:34;;;;;;;5.57;3.33;;;;;;;8.04;92.32;101373.78;5071930;28;20197;-73
2022/02/09 04:51:24;;;;;;;1.50;1.37;;;;;;;8.09;91.17;101377.59;5071872;28;20182;-73
2022/02/09 04:59:27;;;;;;;1.03;0.93;;;;;;;8.04;92.17;101375.69;5071702;28;20171;-73
2022/02/09 05:26:09;;;;;;;3.37;1.43;;;;;;;8.11;89.23;101335.44;5070442;28;20657;-72
2022/02/09 05:28:34;;;;;;;1.37;1.30;;;;;;;8.11;90.08;101199.34;5070871;28;20171;-73
2022/02/09 05:31:00;;;;;;;1.77;1.10;;;;;;;8.08;89.57;101172.66;5070809;28;20181;-73
2022/02/09 05:33:25;;;;;;;2.13;1.07;;;;;;;8.11;90.03;101286.44;5070473;28;20672;-73
2022/02/09 05:35:52;;;;;;;1.40;1.20;;;;;;;8.08;90.78;101297.84;5070353;28;20171;-73
2022/02/09 05:38:19;;;;;;;1.83;1.73;;;;;;;8.08;91.33;101371.34;5070476;28;20210;-73
2022/02/09 05:40:46;;;;;;;0.30;0.30;;;;;;;8.07;91.35;101386.03;5070497;28;20178;-73
2022/02/09 05:43:13;;;;;;;1.60;1.50;;;;;;;8.05;92.16;101369.16;5070492;28;20623;-73
2022/02/09 05:51:40;;;;;;;2.10;1.90;;;;;;;8.01;91.97;101362.66;5070486;28;20261;-74
2022/02/09 05:56:36;;;;;;;1.90;1.80;;;;;;;8.01;92.71;101346.31;5070302;28;20173;-73
2022/02/09 06:01:35;;;;;;;1.60;1.50;;;;;;;7.97;93.96;101339.78;5070201;28;20180;-73
2022/02/09 06:04:01;;;;;;;1.20;1.10;;;;;;;7.99;94.54;101348.50;5070241;28;20175;-73
2022/02/09 06:06:27;;;;;;;5.70;2.73;;;;;;;7.97;94.76;101350.69;5070072;28;20170;-73
2022/02/09 06:08:52;;;;;;;1.27;1.20;;;;;;;7.96;95.96;101351.78;5070211;28;20254;-72
2022/02/09 06:21:27;;;;;;;0.90;0.90;;;;;;;7.91;98.19;101355.28;5074118;28;20172;-72
2022/02/09 06:23:53;;;;;;;0.97;0.97;;;;;;;7.92;98.22;101364.25;5073822;28;20178;-72
2022/02/09 06:26:18;;;;;;;1.47;1.37;;;;;;;7.93;98.23;101371.34;5073741;28;20247;-73
2022/02/09 06:28:45;;;;;;;1.17;0.63;;;;;;;7.92;96.94;101356.91;5074179;28;20174;-72
2022/02/09 06:31:10;;;;;;;1.17;0.63;;;;;;;7.94;96.25;101359.34;5074015;28;20182;-73
2022/02/09 06:33:35;;;;;;;0.53;0.53;;;;;;;7.98;95.56;101363.19;5073947;28;20174;-73
2022/02/09 06:36:03;;;;;;;1.20;1.13;;;;;;;7.94;96.35;101356.63;5073679;28;20182;-73
2022/02/09 06:38:29;;;;;;;1.30;1.20;;;;;;;7.94;95.73;101364.81;5073819;28;20170;-73
2022/02/09 06:40:56;;;;;;;1.17;1.07;;;;;;;7.94;95.26;101357.44;5073846;28;20182;-73
2022/02/09 06:43:22;;;;;;;0.77;0.77;;;;;;;7.98;94.72;101365.91;5073917;28;20171;-73
2022/02/09 06:45:48;;;;;;;0.70;0.70;;;;;;;8.00;93.94;101356.38;5073574;28;20535;-72
2022/02/09 06:48:15;;;;;;;0.40;0.40;;;;;;;7.98;94.05;101364.00;5073826;28;20175;-73
2022/02/09 06:50:46;;;;;;;0.20;0.20;;;;;;;7.98;93.72;101355.03;5073649;28;20174;-73
2022/02/09 06:55:45;;;;;;;0.50;0.50;;;;;;;8.03;91.62;101350.41;5073335;28;20202;-73
2022/02/09 06:58:18;;;;;;;0.57;0.53;;;;;;;8.04;91.75;101353.94;5073573;28;20245;-73
2022/02/09 07:00:43;;;;;;;0.73;0.47;;;;;;;8.04;91.40;101345.75;5073459;28;20177;-73
2022/02/09 07:03:09;;;;;;;0.30;0.30;;;;;;;8.02;91.57;101354.22;5073462;28;20182;-73
2022/02/09 07:05:34;;;;;;;1.00;0.70;;;;;;;7.96;92.61;101347.13;5073057;28;20594;-73
2022/02/09 07:07:59;;;;;;;0.40;0.40;;;;;;;7.97;92.07;101328.91;5073531;28;20261;-72
2022/02/09 07:10:25;;;;;;;1.23;1.13;;;;;;;8.01;92.52;101338.16;5073439;28;20182;-73
2022/02/09 07:12:50;;;;;;;0.33;0.30;;;;;;;8.01;91.72;101335.44;5073273;28;20603;-73
2022/02/09 07:15:25;;;;;;;3.20;0.63;;;;;;;7.98;92.50;101342.25;5072877;28;20206;-73
2022/02/09 07:17:50;;;;;;;0.37;0.27;;;;;;;7.96;92.65;101344.41;5070011;28;20204;-73
2022/02/09 07:20:20;;;;;;;0.93;0.93;;;;;;;7.96;92.83;101341.69;5072636;28;20269;-73
2022/02/09 07:22:48;;;;;;;0.93;0.93;;;;;;;7.98;93.00;101330.53;5073295;28;20626;-74
2022/02/09 07:25:16;;;;;;;1.43;1.10;;;;;;;8.01;92.85;101336.25;5073414;28;20189;-74
2022/02/09 07:30:10;;;;;;;0.60;0.60;;;;;;;7.95;93.89;101325.63;5073773;28;20183;-73
2022/02/09 07:32:36;;;;;;;1.53;1.43;;;;;;;7.97;93.86;101339.78;5073708;28;20179;-73
2022/02/09 07:35:01;;;;;;;3.53;0.97;;;;;;;7.98;94.21;101347.69;5073124;28;20722;-73
2022/02/09 07:37:27;;;;;;;4.93;2.30;;;;;;;7.98;93.85;101346.88;5073212;28;20743;-75
2022/02/09 07:39:52;;;;;;;0.63;0.63;;;;;;;7.98;93.75;101349.59;5073274;28;20179;-73
2022/02/09 07:42:24;;;;;;;0.10;0.10;;;;;;;7.96;94.27;101351.78;5073376;28;20179;-73
2022/02/09 07:48:11;;;;;;;1.23;1.13;;;;;;;8.01;94.02;101349.84;5071587;28;20182;-73
2022/02/09 07:51:13;;;;;;;0.20;0.20;;;;;;;8.07;93.75;101353.38;5072881;28;20713;-73
2022/02/09 07:55:46;;;;;;;0.23;0.23;;;;;;;8.12;93.78;101360.75;5073015;28;20202;-73
2022/02/09 07:58:11;;;;;;;0.60;0.60;;;;;;;8.09;94.11;101364.00;5072852;28;20307;-73
2022/02/09 08:00:36;;;;;;;1.03;0.93;;;;;;;8.11;93.08;101356.41;5072859;28;20248;-73
2022/02/09 08:03:04;;;;;;;0.30;0.30;;;;;;;8.09;93.91;101358.56;5073271;28;20209;-74
2022/02/09 08:05:29;;;;;;;0.37;0.37;;;;;;;8.05;94.62;101353.66;5072685;28;20209;-73
2022/02/09 08:07:55;;;;;;;0.83;0.63;;;;;;;8.02;95.03;101353.38;5072598;28;20206;-74
2022/02/09 08:10:41;;;;;;;0.37;0.37;;;;;;;7.99;95.68;101370.25;5072767;28;20202;-73
2022/02/09 08:33:43;;;;;;;1.10;0.40;;;;;;;7.41;100.00;101332.38;5071861;28;20181;-72
2022/02/09 08:36:09;;;;;;;0.60;0.60;;;;;;;7.47;100.00;101331.28;5071354;28;20203;-72
2022/02/09 08:38:35;;;;;;;3.10;0.63;;;;;;;7.53;100.00;101329.41;5070835;28;20232;-72
2022/02/09 08:41:00;;;;;;;0.30;0.30;;;;;;;7.59;100.00;101327.50;5071648;28;20196;-72
2022/02/09 08:43:25;;;;;;;0.53;0.53;;;;;;;7.65;100.00;101340.00;5071855;28;20182;-72
2022/02/09 08:45:51;;;;;;;0.40;0.40;;;;;;;7.71;100.00;101334.31;5071189;28;20239;-72
2022/02/09 08:48:20;;;;;;;1.13;1.07;;;;;;;7.76;100.00;101353.34;5071702;28;20170;-72
2022/02/09 08:50:50;;;;;;;0.90;0.90;;;;;;;7.85;100.00;101340.06;5071427;28;20621;-72
2022/02/09 08:53:16;;;;;;;0.83;0.73;;;;;;;7.90;100.00;101350.13;5071273;28;20177;-72
2022/02/09 08:55:42;;;;;;;0.10;0.10;;;;;;;7.92;100.00;101347.94;5070957;28;20206;-72
2022/02/09 08:58:07;;;;;;;0.63;0.40;;;;;;;7.93;100.00;101342.22;5071256;28;20177;-72
2022/02/09 09:00:36;;;;;;;0.20;0.20;;;;;;;7.91;100.00;101335.41;5071177;28;20174;-72
2022/02/09 09:05:40;;;;;;;0.70;0.70;;;;;;;7.90;100.00;101337.31;5070991;28;20626;-72
2022/02/09 09:09:04;;;;;;;0.33;0.33;;;;;;;7.90;100.00;101337.31;5071124;28;20170;-72
2022/02/09 09:17:24;;;;;;;0.53;0.53;;;;;;;7.84;100.00;101316.66;5070701;28;20247;-72
2022/02/09 09:57:59;;;;;;;0.87;0.77;;;;;;;7.82;100.00;101329.72;5070608;28;20655;-72
2022/02/09 10:34:26;;;;;;;0.27;0.27;;;;;;;8.19;98.21;101347.66;5057310;28;20289;-71
2022/02/09 10:37:00;;;;;;;6.07;0.80;;;;;;;8.10;98.88;101333.81;5064879;28;20269;-72
2022/02/09 10:39:46;;;;;;;0.40;0.40;;;;;;;8.09;99.82;101337.59;5070282;28;20217;-72
2022/02/09 10:42:22;;;;;;;0.97;0.97;;;;;;;8.12;100.00;101339.78;5070663;28;20220;-71
2022/02/09 10:44:52;;;;;;;0.20;0.20;;;;;;;8.18;100.00;101346.84;5070071;28;20637;-72
2022/02/09 10:47:24;;;;;;;0.50;0.50;;;;;;;8.24;100.00;101336.75;5070228;28;20531;-71
2022/02/09 10:50:18;;;;;;;0.67;0.67;;;;;;;8.33;100.00;101348.75;5070283;28;20171;-72
2022/02/09 10:52:49;;;;;;;0.60;0.60;;;;;;;8.37;99.05;101338.16;5070204;28;20198;-71
2022/02/09 10:55:37;;;;;;;1.17;1.07;;;;;;;8.45;98.62;101345.78;5069948;28;20198;-72
2022/02/09 10:58:14;;;;;;;0.57;0.53;;;;;;;8.48;97.00;101329.69;5070150;28;20178;-71
2022/02/09 11:00:43;;;;;;;1.33;1.13;;;;;;;8.55;95.49;101343.03;5070208;28;20644;-72
2022/02/09 11:03:21;;;;;;;0.70;0.70;;;;;;;8.60;94.99;101338.38;5073677;28;20173;-71
2022/02/09 11:05:48;;;;;;;0.90;0.90;;;;;;;8.60;94.25;101338.38;5073625;28;20274;-72
2022/02/09 11:08:14;;;;;;;0.47;0.47;;;;;;;8.62;93.74;101336.19;5073743;28;20185;-72
2022/02/09 11:10:40;;;;;;;0.23;0.23;;;;;;;8.62;92.66;101332.66;5073710;28;20622;-71
2022/02/09 11:13:09;;;;;;;1.10;1.10;;;;;;;8.64;92.88;101330.47;5073916;28;20260;-72
2022/02/09 11:15:35;;;;;;;0.67;0.67;;;;;;;8.63;92.82;101323.38;5073437;28;20209;-72
2022/02/09 11:18:01;;;;;;;1.23;1.13;;;;;;;8.60;92.48;101319.31;5073603;28;20622;-72
2022/02/09 11:20:30;;;;;;;0.20;0.20;;;;;;;8.60;92.24;101329.41;5073481;28;20281;-72
2022/02/09 11:22:57;;;;;;;0.30;0.30;;;;;;;8.60;91.35;101321.22;5073662;28;20174;-71
2022/02/09 11:25:31;;;;;;;0.43;0.43;;;;;;;8.61;91.38;101307.31;5073039;28;20186;-72
2022/02/09 11:28:31;;;;;;;0.30;0.30;;;;;;;8.59;91.14;101336.75;5073433;28;20178;-71
2022/02/09 11:31:08;;;;;;;0.30;0.30;;;;;;;8.57;90.85;101330.78;5073273;28;20636;-73
2022/02/09 11:33:56;;;;;;;0.27;0.27;;;;;;;8.52;92.26;101332.66;5073332;28;20174;-72
2022/02/09 11:36:35;;;;;;;0.43;0.43;;;;;;;8.50;92.84;101340.31;5072628;28;20170;-73
2022/02/09 11:39:13;;;;;;;0.37;0.37;;;;;;;8.48;93.67;101342.50;5072686;28;20178;-72
2022/02/09 11:41:53;;;;;;;0.60;0.60;;;;;;;8.46;93.75;101339.22;5072973;28;20202;-70
2022/02/09 11:45:07;;;;;;;0.57;0.57;;;;;;;8.46;94.98;101337.31;5073584;28;20648;-72
2022/02/09 11:50:52;;;;;;;0.60;0.60;;;;;;;8.49;94.88;101334.03;5073813;28;20170;-72
2022/02/09 11:58:57;;;;;;;0.20;0.20;;;;;;;8.45;94.23;101319.34;5073072;28;20170;-72
2022/02/09 12:12:11;;;;;;;0.60;0.50;;;;;;;8.63;92.98;101304.31;5072298;28;20176;-72
2022/02/09 12:17:52;;;;;;;0.90;0.77;;;;;;;8.54;93.69;101298.66;5072459;28;20677;-72
2022/02/09 12:20:26;;;;;;;0.40;0.40;;;;;;;8.49;94.94;101306.81;5072150;28;20166;-72
2022/02/09 12:23:25;;;;;;;0.83;0.83;;;;;;;8.45;95.54;101300.28;5072582;28;20204;-72
2022/02/09 12:25:51;;;;;;;1.47;0.93;;;;;;;8.45;96.62;101297.56;5071447;28;20182;-71
2022/02/09 12:28:18;;;;;;;1.13;1.13;;;;;;;8.49;97.13;101298.63;5071853;28;20185;-71
2022/02/09 12:30:45;;;;;;;1.13;1.03;;;;;;;8.53;96.69;101294.25;5071870;28;20173;-71
2022/02/09 12:33:18;;;;;;;0.73;0.73;;;;;;;8.52;96.56;101303.53;5071751;28;20190;-78
2022/02/09 12:35:44;;;;;;;0.70;0.70;;;;;;;8.50;96.98;101300.28;5070298;28;20685;-71
2022/02/09 12:38:10;;;;;;;1.00;1.00;;;;;;;8.48;97.36;101290.75;5071899;28;20226;-71
2022/02/09 12:40:38;;;;;;;0.43;0.43;;;;;;;8.48;97.79;101298.91;5071691;28;20221;-71
2022/02/09 12:43:05;;;;;;;0.67;0.67;;;;;;;8.45;97.83;101294.84;5071649;28;20267;-71
2022/02/09 12:45:33;;;;;;;0.50;0.37;;;;;;;8.49;97.69;101293.19;5071238;28;20258;-71
2022/02/09 12:48:01;;;;;;;2.23;2.03;;;;;;;8.51;98.33;101276.56;5070200;28;20174;-70
2022/02/09 12:50:33;;;;;;;2.23;1.53;;;;;;;8.55;97.18;101273.03;5071519;28;20178;-71
2022/02/09 12:52:59;;;;;;;1.17;0.97;;;;;;;8.59;96.88;101287.72;5071442;28;20185;-71
2022/02/09 12:55:56;;;;;;;1.17;1.07;;;;;;;8.64;95.49;101276.81;5071111;28;20199;-71
2022/02/09 12:58:22;;;;;;;1.20;1.10;;;;;;;8.64;96.34;101284.97;5071139;28;20844;-71
2022/02/09 13:00:48;;;;;;;0.77;0.50;;;;;;;8.63;97.06;101277.91;5071412;28;20224;-71
2022/02/09 13:03:23;;;;;;;3.03;1.17;;;;;;;8.60;97.39;101277.66;5071286;28;20206;-71
2022/02/09 13:05:49;;;;;;;1.03;0.67;;;;;;;8.54;97.06;101276.03;5071339;28;20253;-71
2022/02/09 13:08:26;;;;;;;1.33;1.33;;;;;;;8.41;98.61;101290.25;5071145;28;20251;-72
2022/02/09 13:13:36;;;;;;;0.77;0.77;;;;;;;8.17;100.00;101282.63;5071185;28;20167;-71
2022/02/09 13:16:19;;;;;;;1.00;0.90;;;;;;;8.10;100.00;101271.22;5070624;28;20749;-71
2022/02/09 13:19:20;;;;;;;0.67;0.67;;;;;;;8.08;100.00;101276.09;5069600;28;20536;-71
2022/02/09 14:15:01;;;;;;;2.00;1.90;;;;;;;8.33;100.00;101278.78;5070087;28;20206;-71
2022/02/09 14:31:33;;;;;;;2.37;2.17;;;;;;;8.38;100.00;101285.31;5070632;28;20177;-71
2022/02/09 14:58:10;;;;;;;0.70;0.70;;;;;;;8.64;95.60;101292.34;5073526;28;20612;-71
2022/02/09 15:00:40;;;;;;;0.90;0.90;;;;;;;8.65;95.91;101291.25;5073560;28;20175;-71
2022/02/09 15:11:27;;;;;;;0.50;0.50;;;;;;;8.71;93.63;101284.69;5073617;28;20174;-71
2022/02/09 15:16:25;;;;;;;2.10;1.47;;;;;;;8.69;93.13;101283.34;5072984;28;20209;-71
2022/02/09 15:24:20;;;;;;;0.60;0.60;;;;;;;8.61;92.64;101282.00;5073039;28;20661;-72
2022/02/09 15:26:48;;;;;;;0.63;0.57;;;;;;;8.61;92.82;101282.81;5072309;28;20642;-72
2022/02/09 15:29:16;;;;;;;0.30;0.30;;;;;;;8.63;92.55;101285.25;5073073;28;20559;-71
2022/02/09 15:31:55;;;;;;;2.10;1.67;;;;;;;8.60;92.72;101292.09;5073097;28;20181;-71
2022/02/09 15:34:43;;;;;;;4.83;1.50;;;;;;;8.59;92.91;101285.00;5072973;28;20676;-71
2022/02/09 15:39:46;;;;;;;0.63;0.63;;;;;;;8.53;93.95;101268.94;5073045;28;20656;-71
2022/02/09 16:17:31;;;;;;;1.70;1.60;;;;;;;8.31;96.17;101310.91;5072158;28;20177;-71
2022/02/09 16:22:34;;;;;;;1.43;1.03;;;;;;;8.32;95.34;101311.72;5072087;28;20645;-71
2022/02/09 16:44:22;;;;;;;3.43;1.90;;;;;;;8.15;96.81;101289.44;5070782;28;20185;-71
2022/02/09 16:46:57;;;;;;;2.70;2.50;;;;;;;8.12;97.87;101285.34;5070772;28;20174;-72
2022/02/09 16:49:39;;;;;;;8.47;0.77;;;;;;;8.11;97.90;101281.00;5071606;28;20638;-72
2022/02/09 16:52:27;;;;;;;1.50;1.40;;;;;;;8.09;97.26;101294.03;5071286;28;20174;-71
2022/02/09 17:21:19;;;;;;;4.60;4.20;;;;;;;8.02;98.14;101298.97;5065743;28;20179;-71
2022/02/09 17:23:46;;;;;;;4.50;4.10;;;;;;;8.03;99.02;101295.16;5070809;28;20181;-71
2022/02/09 17:26:12;;;;;;;4.73;4.33;;;;;;;8.02;98.29;101291.63;5069418;28;20190;-71
2022/02/09 17:28:58;;;;;;;3.97;3.03;;;;;;;8.01;98.72;101300.06;5070834;28;20174;-71
2022/02/09 17:31:43;;;;;;;3.63;3.33;;;;;;;8.02;98.55;101307.94;5070575;28;20178;-71
2022/02/09 17:36:46;;;;;;;4.13;3.83;;;;;;;8.01;98.03;101297.34;5070474;28;20183;-71
2022/02/09 17:53:23;;;;;;;2.53;1.67;;;;;;;8.02;98.17;101296.25;5070571;28;20167;-71
2022/02/09 17:53:24;;;;;;;3.33;3.07;;;;;;;7.98;97.44;101284.28;5071220;28;20252;-72
2022/02/09 17:58:52;;;;;;;2.43;2.23;;;;;;;8.01;96.78;101286.44;5068768;28;20218;-71
2022/02/09 18:01:19;;;;;;;5.30;4.80;;;;;;;8.00;97.31;101287.53;5070326;28;20694;-71
2022/02/09 18:03:45;;;;;;;3.67;3.47;;;;;;;8.03;96.77;101289.72;5070400;28;20396;-71
2022/02/09 18:06:19;;;;;;;3.47;3.13;;;;;;;8.03;96.30;101287.81;5069902;28;20225;-71
2022/02/09 18:08:58;;;;;;;1.67;1.57;;;;;;;8.03;96.41;101289.72;5068878;28;20182;-71
2022/02/09 18:30:34;;;;;;;3.53;3.23;;;;;;;8.06;95.36;101292.69;5070063;28;20662;-71
2022/02/09 18:44:02;;;;;;;3.90;3.60;;;;;;;7.94;96.58;101294.06;5070561;28;20174;-71
2022/02/09 18:46:38;;;;;;;2.83;2.57;;;;;;;7.93;96.53;101281.53;5070044;28;20537;-71
2022/02/09 19:00:06;;;;;;;1.23;1.17;;;;;;;7.86;97.18;101276.38;5069075;28;20187;-71
2022/02/09 19:05:44;;;;;;;6.87;6.17;;;;;;;7.89;97.66;101280.47;5069928;28;20170;-71
2022/02/09 19:16:16;;;;;;;1.67;1.57;;;;;;;7.88;96.82;101276.13;5069840;28;20272;-71
2022/02/09 19:45:54;;;;;;;1.83;1.73;;;;;;;7.85;97.61;101260.34;5072956;28;20279;-72
2022/02/09 19:48:26;;;;;;;2.27;2.17;;;;;;;7.87;97.71;101267.13;5073463;28;20246;-71
2022/02/09 19:56:30;;;;;;;5.63;5.03;;;;;;;7.81;98.21;101273.69;5071061;28;20222;-71
2022/02/09 19:59:02;;;;;;;4.30;3.90;;;;;;;7.81;98.60;101273.69;5072714;28;20202;-71
2022/02/09 20:01:35;;;;;;;7.23;6.57;;;;;;;7.79;99.08;101269.56;5072978;28;20415;-71
2022/02/09 20:04:00;;;;;;;9.13;6.23;;;;;;;7.78;99.31;101266.03;5072886;28;20534;-73
2022/02/09 20:06:26;;;;;;;6.63;6.10;;;;;;;7.76;99.36;101269.03;5072144;28;20257;-71
2022/02/09 20:08:51;;;;;;;5.40;4.90;;;;;;;7.77;99.41;101267.13;5072032;28;20261;-71
2022/02/09 20:11:17;;;;;;;8.90;6.93;;;;;;;7.76;99.83;101269.03;5067967;28;20186;-71
2022/02/09 20:13:45;;;;;;;6.53;5.83;;;;;;;7.76;99.68;101257.34;5072873;28;20270;-71
2022/02/09 20:16:10;;;;;;;7.77;6.13;;;;;;;7.78;99.92;101267.94;5073126;28;20202;-70
2022/02/09 20:18:36;;;;;;;8.13;7.33;;;;;;;7.76;100.00;101263.59;5072600;28;20183;-71
2022/02/09 20:21:03;;;;;;;6.73;6.07;;;;;;;7.76;100.00;101277.19;5072826;28;20179;-71
2022/02/09 20:23:32;;;;;;;1.67;1.53;;;;;;;7.75;100.00;101270.13;5072719;28;20185;-71
2022/02/09 20:26:04;;;;;;;7.00;6.30;;;;;;;7.74;100.00;101262.25;5072722;28;20185;-71
2022/02/09 20:28:30;;;;;;;5.37;4.87;;;;;;;7.72;100.00;101259.81;5072800;28;20198;-71
2022/02/09 20:31:04;;;;;;;4.03;3.13;;;;;;;7.74;100.00;101262.25;5072787;28;20200;-71
2022/02/09 20:33:38;;;;;;;4.97;4.03;;;;;;;7.74;100.00;101264.97;5071945;28;20603;-71
2022/02/09 20:36:06;;;;;;;4.87;4.43;;;;;;;7.75;100.00;101255.72;5072334;28;20212;-73
2022/02/09 20:38:33;;;;;;;5.47;4.97;;;;;;;7.74;100.00;101260.34;5072500;28;20627;-71
2022/02/09 20:41:04;;;;;;;4.20;3.77;;;;;;;7.75;100.00;101251.09;5072470;28;20170;-71
2022/02/09 20:43:33;;;;;;;4.77;4.10;;;;;;;7.79;100.00;101261.41;5072480;28;20159;-71
2022/02/09 20:46:02;;;;;;;6.53;5.93;;;;;;;7.78;100.00;101257.88;5072292;28;20174;-71
2022/02/09 20:48:28;;;;;;;5.53;5.03;;;;;;;7.80;100.00;101254.88;5072352;28;20265;-71
2022/02/09 20:50:56;;;;;;;5.80;5.00;;;;;;;7.83;100.00;101251.66;5072400;28;20262;-71
2022/02/09 20:53:22;;;;;;;6.90;6.23;;;;;;;7.84;99.65;101248.66;5072249;28;20182;-71
2022/02/09 20:55:49;;;;;;;6.83;6.03;;;;;;;7.88;98.97;101259.78;5072055;28;20202;-71
2022/02/09 20:58:16;;;;;;;9.60;5.30;;;;;;;7.88;99.50;101236.13;5072143;28;20171;-71
2022/02/09 21:00:47;;;;;;;3.07;2.83;;;;;;;7.89;98.92;101272.31;5070693;28;20174;-71
2022/02/09 21:05:53;;;;;;;5.23;4.73;;;;;;;7.92;98.91;101252.72;5072066;28;20257;-71
2022/02/09 21:11:10;;;;;;;5.80;4.60;;;;;;;7.91;98.70;101257.34;5072306;28;20170;-71
2022/02/09 21:13:57;;;;;;;2.63;2.43;;;;;;;7.95;98.37;101254.88;5072091;28;20224;-71
2022/02/09 21:45:33;;;;;;;2.73;2.53;;;;;;;7.92;98.63;101258.16;5071210;28;20682;-71
2022/02/09 21:53:39;;;;;;;7.30;6.27;;;;;;;7.89;98.26;101250.53;5071407;28;20232;-71
2022/02/09 22:19:44;;;;;;;2.37;2.17;;;;;;;7.91;97.55;101246.44;5071169;28;20182;-70
2022/02/09 22:22:29;;;;;;;5.97;5.47;;;;;;;7.90;97.97;101241.28;5070988;28;20162;-71
2022/02/09 22:27:44;;;;;;;6.77;5.80;;;;;;;7.88;97.76;101232.59;5070944;28;20588;-71
2022/02/09 22:56:50;;;;;;;2.77;2.57;;;;;;;7.90;97.59;101186.88;5071223;28;20224;-71
2022/02/09 22:59:59;;;;;;;4.83;4.43;;;;;;;7.88;97.38;101189.88;5074722;28;20535;-71
2022/02/09 23:02:14;;;;;;;6.23;5.67;;;;;;;7.89;97.92;101185.25;5073748;28;20285;-71
2022/02/09 23:04:57;;;;;;;7.70;6.90;;;;;;;7.87;97.68;101182.00;5074312;28;20235;-71
2022/02/09 23:08:27;;;;;;;8.23;7.40;;;;;;;7.85;98.03;101181.44;5074507;28;20162;-71
2022/02/09 23:10:19;;;;;;;7.57;6.63;;;;;;;7.85;98.53;101187.72;5073344;28;20557;-71
2022/02/09 23:12:52;;;;;;;7.53;6.60;;;;;;;7.87;98.54;101176.53;5074453;28;20166;-75
